Terminal Aerodrome Forecast
Issued by NWS

Home | Current Version | Previous Version | Text Only | Print | Product List | Glossary On
Versions: 1 2 3 4 5 6 7 8 9 10 11 12 13 14 15 16 17
934
FTUS43 KGRR 291140
TAFLAN
TAF
KLAN 291140Z 2912/3012 02005KT P6SM SKC
     FM291500 04012G20KT P6SM SCT050
     FM300000 35004KT P6SM SKC=

USA.gov is the U.S. government's official web portal to all federal, state and local government web resources and services.